Time;durP1;ratioP1;P1;durP2;ratioP2;P2;SDS_P1;SDS_P2;PMS_P1;PMS_P2;Temp;Humidity;BMP_temperature;BMP_pressure;BME280_temperature;BME280_humidity;BME280_pressure;Samples;Min_cycle;Max_cycle;Signal;HPM_P1;HPM_P2
2022/01/19 00:01:41;;;;;;;44.50;28.70;;;;;;;3.85;84.42;103131.59;5031689;28;20463;-45
2022/01/19 00:04:10;;;;;;;42.63;27.80;;;;;;;3.80;85.89;103120.47;5032250;28;20479;-45
2022/01/19 00:06:38;;;;;;;46.23;28.47;;;;;;;3.77;86.33;103116.22;5032027;28;20463;-46
2022/01/19 00:09:06;;;;;;;39.37;25.40;;;;;;;3.75;86.91;103104.94;5032306;28;20429;-46
2022/01/19 00:11:34;;;;;;;46.00;26.63;;;;;;;3.74;87.34;103105.88;5031463;28;20460;-47
2022/01/19 00:14:01;;;;;;;36.90;24.60;;;;;;;3.78;88.13;103103.88;5032288;28;20439;-47
2022/01/19 00:16:29;;;;;;;37.70;23.33;;;;;;;3.71;89.44;103103.41;5032180;28;20456;-45
2022/01/19 00:18:57;;;;;;;44.10;25.37;;;;;;;3.70;90.12;103091.16;5031986;28;20433;-45
2022/01/19 00:21:26;;;;;;;38.20;26.37;;;;;;;3.68;90.29;103082.50;5031451;28;20491;-44
2022/01/19 00:23:54;;;;;;;43.30;26.97;;;;;;;3.68;89.93;103082.50;5032015;28;20436;-45
2022/01/19 00:26:21;;;;;;;43.30;29.13;;;;;;;3.69;89.86;103078.06;5031498;28;21019;-46
2022/01/19 00:28:49;;;;;;;44.17;30.83;;;;;;;3.74;89.95;103090.03;5032018;28;20428;-47
2022/01/19 00:31:16;;;;;;;40.67;27.90;;;;;;;3.73;90.68;103085.69;5031153;28;20471;-45
2022/01/19 00:33:44;;;;;;;43.03;28.70;;;;;;;3.73;91.29;103087.50;5031747;28;21014;-44
2022/01/19 00:36:12;;;;;;;39.67;29.33;;;;;;;3.75;91.38;103070.63;5031886;28;20453;-45
2022/01/19 00:38:41;;;;;;;42.20;27.90;;;;;;;3.68;92.22;103064.03;5031969;28;20438;-49
2022/01/19 00:41:10;;;;;;;36.30;24.80;;;;;;;3.66;92.27;103049.22;5031370;28;20515;-47
2022/01/19 00:43:38;;;;;;;48.93;28.50;;;;;;;3.60;91.99;103032.00;5031658;28;20810;-45
2022/01/19 00:46:06;;;;;;;33.07;26.37;;;;;;;3.62;91.51;103029.25;5023171;28;20506;-47
2022/01/19 00:48:35;;;;;;;39.53;28.27;;;;;;;3.63;91.70;103023.91;5032026;28;20436;-46
2022/01/19 00:51:02;;;;;;;37.30;24.80;;;;;;;3.59;91.49;103016.25;5031160;28;20464;-48
2022/01/19 00:53:30;;;;;;;38.60;25.37;;;;;;;3.58;91.18;103002.25;5031807;28;20436;-46
2022/01/19 00:55:59;;;;;;;38.03;23.83;;;;;;;3.58;91.15;102993.47;5031605;28;20438;-45
2022/01/19 00:58:27;;;;;;;42.83;26.47;;;;;;;3.57;91.15;102976.78;5031639;28;20443;-45
2022/01/19 01:00:54;;;;;;;40.43;29.97;;;;;;;3.59;91.08;102974.88;5030817;28;20487;-44
2022/01/19 01:03:22;;;;;;;40.40;27.30;;;;;;;3.62;91.17;102972.06;5031771;28;20443;-46
2022/01/19 01:05:50;;;;;;;46.23;32.13;;;;;;;3.61;91.71;102970.38;5031365;28;20987;-45
2022/01/19 01:08:17;;;;;;;44.97;29.47;;;;;;;3.66;91.46;102970.94;5031404;28;20446;-48
2022/01/19 01:10:48;;;;;;;48.73;30.73;;;;;;;3.66;92.22;102972.72;5030839;28;20468;-49
2022/01/19 01:15:24;;;;;;;46.47;30.63;;;;;;;3.66;92.14;102964.81;5031330;28;20424;-49
2022/01/19 01:16:18;;;;;;;41.90;27.47;;;;;;;3.60;92.49;102965.19;5031432;28;20456;-47
2022/01/19 01:18:46;;;;;;;47.30;29.47;;;;;;;3.55;92.16;102968.13;5031534;28;20432;-47
2022/01/19 01:21:13;;;;;;;46.70;29.70;;;;;;;3.55;92.02;102962.88;5030745;28;20468;-49
2022/01/19 01:23:41;;;;;;;42.40;30.23;;;;;;;3.60;91.40;102955.50;5031299;28;20935;-48
2022/01/19 01:26:09;;;;;;;44.07;31.60;;;;;;;3.57;91.83;102941.63;5031468;28;20508;-45
2022/01/19 01:28:38;;;;;;;47.97;30.53;;;;;;;3.55;91.92;102939.13;5031489;28;20455;-44
2022/01/19 01:31:07;;;;;;;45.37;31.40;;;;;;;3.63;91.31;102933.34;5030781;28;20460;-45
2022/01/19 01:33:35;;;;;;;46.07;30.30;;;;;;;3.58;92.47;102938.91;5031462;28;20439;-47
2022/01/19 01:36:03;;;;;;;47.00;29.33;;;;;;;3.59;92.68;102956.41;5031133;28;20961;-48
2022/01/19 01:38:31;;;;;;;39.03;28.80;;;;;;;3.57;92.74;102955.69;5031497;28;20432;-46
2022/01/19 01:41:12;;;;;;;42.90;29.40;;;;;;;3.51;92.49;102932.34;5033849;28;20463;-45
2022/01/19 01:43:42;;;;;;;41.17;28.97;;;;;;;3.49;92.10;102925.47;5034881;28;20535;-45
2022/01/19 01:46:21;;;;;;;44.13;29.63;;;;;;;3.50;92.20;102916.59;5026370;28;20515;-47
2022/01/19 01:48:49;;;;;;;45.83;30.90;;;;;;;3.54;91.58;102902.25;5035228;28;20450;-45
2022/01/19 01:54:02;;;;;;;48.63;33.00;;;;;;;3.58;92.50;102877.38;5034912;28;20432;-47
2022/01/19 01:56:29;;;;;;;47.70;30.80;;;;;;;3.61;92.34;102877.19;5034686;28;20567;-45
2022/01/19 01:58:58;;;;;;;44.23;31.80;;;;;;;3.58;92.74;102862.41;5034616;28;20459;-46
2022/01/19 02:01:26;;;;;;;45.53;31.57;;;;;;;3.56;92.95;102844.97;5034130;28;20479;-46
2022/01/19 02:03:54;;;;;;;55.50;36.07;;;;;;;3.57;92.77;102844.03;5034538;28;20433;-44
2022/01/19 02:06:31;;;;;;;52.80;33.40;;;;;;;3.54;92.16;102842.44;5034258;28;21067;-45
2022/01/19 02:09:06;;;;;;;46.67;33.23;;;;;;;3.54;91.79;102823.97;5034569;28;20432;-48
2022/01/19 02:23:04;;;;;;;47.90;30.80;;;;;;;3.54;90.64;102823.97;5034528;28;20428;-48
2022/01/19 02:25:38;;;;;;;58.90;33.50;;;;;;;3.56;90.39;102816.78;5034131;28;20476;-44
2022/01/19 02:36:38;;;;;;;53.67;31.77;;;;;;;3.55;89.54;102799.31;5033914;28;20456;-48
2022/01/19 02:41:52;;;;;;;61.30;32.33;;;;;;;3.59;88.43;102777.03;5033142;28;20472;-46
2022/01/19 02:44:36;;;;;;;57.77;31.47;;;;;;;3.58;88.34;102772.72;5030584;28;20429;-44
2022/01/19 02:49:50;;;;;;;54.17;31.40;;;;;;;3.61;88.97;102764.59;5033079;28;20915;-45
2022/01/19 02:52:21;;;;;;;61.77;32.53;;;;;;;3.62;88.95;102757.50;5033566;28;20429;-47
2022/01/19 02:54:49;;;;;;;46.03;28.50;;;;;;;3.62;89.93;102745.16;5033847;28;20436;-44
2022/01/19 02:57:20;;;;;;;46.90;25.87;;;;;;;3.56;90.89;102744.72;5033517;28;20463;-46
2022/01/19 03:06:16;;;;;;;50.73;27.23;;;;;;;3.51;91.17;102744.19;5033312;28;20433;-47
2022/01/19 03:10:52;;;;;;;52.40;29.13;;;;;;;3.39;90.01;102711.56;5032605;28;20995;-45
2022/01/19 03:13:20;;;;;;;51.53;29.10;;;;;;;3.43;89.25;102699.88;5033356;28;20432;-45
2022/01/19 03:15:47;;;;;;;50.43;28.83;;;;;;;3.43;88.80;102691.13;5033371;28;20440;-45
2022/01/19 03:18:15;;;;;;;54.47;29.77;;;;;;;3.43;88.65;102691.97;5033036;28;20445;-45
2022/01/19 03:20:43;;;;;;;57.57;30.67;;;;;;;3.47;87.87;102692.59;5032465;28;20464;-45
2022/01/19 03:23:18;;;;;;;66.67;30.93;;;;;;;3.45;87.90;102684.78;5032733;28;20432;-44
2022/01/19 03:25:46;;;;;;;51.10;29.67;;;;;;;3.45;86.24;102691.84;5032934;28;20431;-49
2022/01/19 03:28:14;;;;;;;52.30;28.73;;;;;;;3.50;85.80;102677.41;5032948;28;20440;-46
2022/01/19 03:30:42;;;;;;;66.07;30.60;;;;;;;3.46;85.83;102675.09;5032211;28;20990;-44
2022/01/19 03:33:10;;;;;;;55.47;30.07;;;;;;;3.45;86.19;102665.47;5033053;28;20432;-45
2022/01/19 03:35:39;;;;;;;47.60;28.00;;;;;;;3.42;87.24;102668.31;5033063;28;20436;-44
2022/01/19 03:38:07;;;;;;;47.17;27.73;;;;;;;3.38;87.30;102659.75;5032902;28;20496;-46
2022/01/19 03:40:37;;;;;;;55.17;27.87;;;;;;;3.40;86.36;102662.31;5031669;28;20464;-47
2022/01/19 03:43:06;;;;;;;45.37;26.73;;;;;;;3.45;86.47;102649.66;5032216;28;20424;-47
2022/01/19 03:45:34;;;;;;;52.73;29.00;;;;;;;3.44;86.67;102638.25;5023754;28;20439;-45
2022/01/19 03:48:19;;;;;;;50.47;29.90;;;;;;;3.44;87.54;102632.97;5032401;28;20480;-45
2022/01/19 03:50:47;;;;;;;54.63;31.70;;;;;;;3.46;87.01;102615.28;5032160;28;20452;-44
2022/01/19 03:53:15;;;;;;;64.07;33.30;;;;;;;3.53;86.16;102611.25;5032563;28;20943;-49
2022/01/19 03:55:44;;;;;;;55.13;33.87;;;;;;;3.57;86.92;102606.63;5032372;28;20432;-45
2022/01/19 03:58:12;;;;;;;58.30;33.20;;;;;;;3.53;87.42;102598.06;5032542;28;20493;-44
2022/01/19 04:00:42;;;;;;;50.63;29.63;;;;;;;3.49;88.86;102606.31;5031968;28;20472;-47
2022/01/19 04:03:13;;;;;;;56.00;31.50;;;;;;;3.40;89.18;102602.50;5032022;28;20432;-48
2022/01/19 04:05:54;;;;;;;51.17;31.07;;;;;;;3.38;89.01;102600.91;5032408;28;20448;-48
2022/01/19 04:08:21;;;;;;;63.03;33.20;;;;;;;3.30;87.93;102619.91;5032134;28;20823;-45
2022/01/19 04:10:50;;;;;;;59.50;30.13;;;;;;;3.35;87.38;102621.28;5031649;28;20806;-44
2022/01/19 04:13:29;;;;;;;52.67;28.07;;;;;;;3.34;87.90;102621.38;5032255;28;20428;-47
2022/01/19 04:15:57;;;;;;;52.40;29.90;;;;;;;3.37;87.69;102626.44;5032158;28;20428;-47
2022/01/19 04:18:26;;;;;;;54.83;29.97;;;;;;;3.35;88.29;102626.53;5032069;28;20595;-45
2022/01/19 04:20:54;;;;;;;52.07;29.20;;;;;;;3.36;88.19;102624.75;5031465;28;20464;-45
2022/01/19 04:23:22;;;;;;;54.13;29.97;;;;;;;3.38;88.00;102620.22;5032106;28;20867;-44
2022/01/19 04:25:51;;;;;;;58.90;32.70;;;;;;;3.34;88.55;102621.38;5032125;28;20436;-45
2022/01/19 04:28:19;;;;;;;56.27;30.43;;;;;;;3.40;88.37;102617.47;5031897;28;20849;-44
2022/01/19 04:30:46;;;;;;;66.47;33.00;;;;;;;3.46;88.26;102619.69;5031423;28;21013;-45
2022/01/19 04:33:17;;;;;;;64.07;33.63;;;;;;;3.41;88.75;102601.53;5031849;28;20436;-48
2022/01/19 04:35:49;;;;;;;56.40;29.90;;;;;;;3.44;88.48;102597.84;5031942;28;20436;-46
2022/01/19 04:44:24;;;;;;;51.20;25.73;;;;;;;3.42;88.55;102574.22;5031227;28;20432;-46
2022/01/19 05:04:01;;;;;;;47.97;25.33;;;;;;;3.45;87.47;102571.38;5049017;28;20952;-44
2022/01/19 05:06:32;;;;;;;47.90;27.13;;;;;;;3.48;87.48;102563.25;5048848;28;20465;-52
2022/01/19 05:09:06;;;;;;;49.83;26.23;;;;;;;3.50;87.90;102556.06;5049044;28;20479;-49
2022/01/19 05:14:19;;;;;;;41.20;24.90;;;;;;;3.51;87.91;102552.50;5048875;28;20430;-46
2022/01/19 05:16:47;;;;;;;49.40;24.60;;;;;;;3.51;88.21;102541.94;5048684;28;20458;-46
2022/01/19 05:19:15;;;;;;;71.53;26.67;;;;;;;3.54;88.30;102527.69;5048614;28;20458;-46
2022/01/19 05:21:44;;;;;;;48.43;24.73;;;;;;;3.53;88.08;102542.66;5047973;28;20810;-46
2022/01/19 05:24:12;;;;;;;50.33;25.20;;;;;;;3.51;89.20;102520.84;5048614;28;20807;-47
2022/01/19 05:26:39;;;;;;;40.93;22.97;;;;;;;3.47;89.54;102523.78;5048546;28;20467;-48
2022/01/19 05:29:07;;;;;;;41.10;24.20;;;;;;;3.47;88.85;102514.09;5048402;28;20999;-49
2022/01/19 05:31:35;;;;;;;35.30;24.60;;;;;;;3.42;88.71;102512.72;5047584;28;20992;-49
2022/01/19 05:34:03;;;;;;;45.10;25.43;;;;;;;3.45;88.40;102504.59;5048506;28;20442;-48
2022/01/19 05:36:30;;;;;;;48.53;25.90;;;;;;;3.47;88.18;102490.34;5048244;28;20456;-47
2022/01/19 05:39:00;;;;;;;47.60;25.37;;;;;;;3.47;87.97;102485.06;5048202;28;20454;-46
2022/01/19 05:41:28;;;;;;;43.80;25.33;;;;;;;3.51;87.73;102488.34;5047773;28;20463;-49
2022/01/19 05:43:55;;;;;;;50.37;26.60;;;;;;;3.47;87.59;102482.44;5055928;28;20430;-47
2022/01/19 05:46:23;;;;;;;48.60;27.20;;;;;;;3.45;87.33;102484.34;5059964;28;20788;-45
2022/01/19 05:48:51;;;;;;;48.90;25.73;;;;;;;3.46;87.38;102475.50;5067845;28;20490;-44
2022/01/19 05:51:18;;;;;;;39.33;21.70;;;;;;;3.39;88.23;102470.75;5067331;28;21059;-48
2022/01/19 05:53:47;;;;;;;40.83;23.67;;;;;;;3.35;88.43;102459.56;5067952;28;20461;-49
2022/01/19 05:56:15;;;;;;;46.43;23.80;;;;;;;3.31;88.55;102458.97;5067794;28;20455;-49
2022/01/19 05:58:43;;;;;;;41.67;24.13;;;;;;;3.37;88.56;102447.13;5067604;28;20441;-46
2022/01/19 06:01:11;;;;;;;52.80;25.40;;;;;;;3.40;88.59;102443.44;5054533;28;20487;-47
2022/01/19 06:03:39;;;;;;;52.87;25.37;;;;;;;3.47;88.25;102426.19;5053577;28;20439;-49
2022/01/19 06:06:07;;;;;;;54.03;27.27;;;;;;;3.47;89.11;102416.50;5053988;28;20439;-47
2022/01/19 06:08:42;;;;;;;49.73;24.27;;;;;;;3.55;88.67;102410.69;5054373;28;20481;-46
2022/01/19 06:11:11;;;;;;;45.47;25.30;;;;;;;3.61;88.39;102402.34;5053597;28;20455;-46
2022/01/19 06:13:41;;;;;;;44.83;27.17;;;;;;;3.58;89.68;102408.69;5054544;28;20424;-49
2022/01/19 06:16:10;;;;;;;58.77;26.97;;;;;;;3.54;90.25;102390.53;5054228;28;20580;-44
2022/01/19 06:18:40;;;;;;;43.40;24.93;;;;;;;3.48;89.98;102394.47;5053908;28;20510;-47
2022/01/19 06:21:09;;;;;;;48.23;25.97;;;;;;;3.53;89.61;102394.09;5053629;28;20463;-49
2022/01/19 06:23:37;;;;;;;48.70;25.90;;;;;;;3.48;90.01;102386.53;5054116;28;20431;-47
2022/01/19 06:26:05;;;;;;;40.20;25.70;;;;;;;3.48;90.16;102388.34;5054235;28;20463;-47
2022/01/19 06:28:32;;;;;;;45.60;25.73;;;;;;;3.41;90.17;102380.00;5053651;28;20432;-47
2022/01/19 06:31:01;;;;;;;50.67;25.37;;;;;;;3.43;89.62;102369.38;5053359;28;20468;-45
2022/01/19 06:33:29;;;;;;;50.63;26.53;;;;;;;3.36;90.51;102363.69;5054036;28;20432;-46
2022/01/19 06:35:56;;;;;;;42.60;26.77;;;;;;;3.35;90.25;102357.56;5053887;28;20431;-49
2022/01/19 06:38:24;;;;;;;43.93;23.93;;;;;;;3.28;90.06;102359.00;5053707;28;20454;-47
2022/01/19 06:40:52;;;;;;;47.03;25.20;;;;;;;3.28;89.55;102353.72;5053138;28;20470;-45
2022/01/19 06:43:19;;;;;;;42.10;23.33;;;;;;;3.26;88.87;102349.47;5053766;28;20431;-44
2022/01/19 06:45:47;;;;;;;43.13;24.50;;;;;;;3.24;88.29;102346.13;5045503;28;20435;-44
2022/01/19 06:48:16;;;;;;;50.27;27.27;;;;;;;3.25;88.18;102337.25;5053543;28;20464;-45
2022/01/19 06:50:43;;;;;;;47.27;24.87;;;;;;;3.24;87.67;102332.94;5042148;28;20478;-47
2022/01/19 06:53:14;;;;;;;42.13;25.23;;;;;;;3.25;87.67;102322.28;5044099;28;20497;-47
2022/01/19 06:55:42;;;;;;;42.67;23.57;;;;;;;3.22;88.49;102316.41;5051073;28;20423;-46
2022/01/19 06:58:09;;;;;;;42.83;24.90;;;;;;;3.24;88.17;102322.38;5051131;28;20452;-45
2022/01/19 07:00:37;;;;;;;47.17;24.43;;;;;;;3.23;87.97;102318.91;5042050;28;20469;-44
2022/01/19 07:03:05;;;;;;;46.80;25.90;;;;;;;3.19;87.05;102325.38;5029700;28;20954;-47
2022/01/19 07:05:34;;;;;;;44.30;24.00;;;;;;;3.23;86.84;102318.91;5011434;28;20445;-45
2022/01/19 07:08:02;;;;;;;42.70;23.57;;;;;;;3.19;87.63;102325.38;5011837;28;20449;-47
2022/01/19 07:10:31;;;;;;;38.70;23.20;;;;;;;3.23;87.30;102323.34;5022894;28;20480;-49
2022/01/19 07:12:59;;;;;;;43.10;23.93;;;;;;;3.26;87.21;102316.06;5041901;28;20540;-47
2022/01/19 07:15:27;;;;;;;43.93;23.53;;;;;;;3.27;87.82;102317.75;5031771;28;20443;-45
2022/01/19 07:17:54;;;;;;;46.80;23.57;;;;;;;3.27;88.04;102311.63;5046589;28;20462;-50
2022/01/19 07:20:22;;;;;;;47.50;23.77;;;;;;;3.20;88.00;102305.09;5044088;28;21215;-44
2022/01/19 07:22:51;;;;;;;42.30;24.03;;;;;;;3.18;86.98;102294.69;5023758;28;20824;-46
2022/01/19 07:25:19;;;;;;;52.30;24.23;;;;;;;3.24;86.15;102282.84;5010476;28;20442;-45
2022/01/19 07:27:46;;;;;;;40.77;24.40;;;;;;;3.24;86.47;102280.22;5011423;28;20461;-51
2022/01/19 07:30:14;;;;;;;37.20;21.40;;;;;;;3.22;86.80;102287.41;5016288;28;20472;-45
2022/01/19 07:32:43;;;;;;;46.47;21.27;;;;;;;3.20;86.52;102276.09;5030445;28;20423;-46
2022/01/19 07:35:11;;;;;;;43.57;23.83;;;;;;;3.18;85.50;102270.09;5031247;28;20432;-47
2022/01/19 07:37:38;;;;;;;44.30;22.53;;;;;;;3.20;85.37;102262.91;5030077;28;20981;-50
2022/01/19 07:40:09;;;;;;;42.10;25.50;;;;;;;3.21;85.11;102267.25;5030204;28;20471;-46
2022/01/19 07:42:36;;;;;;;41.70;21.43;;;;;;;3.18;85.64;102249.03;5029842;28;20455;-46
2022/01/19 07:45:06;;;;;;;35.30;23.63;;;;;;;3.15;86.12;102247.47;5040594;28;20447;-50
2022/01/19 07:47:33;;;;;;;51.90;23.33;;;;;;;3.17;86.61;102232.34;5050371;28;20451;-47
2022/01/19 07:50:01;;;;;;;43.23;25.20;;;;;;;3.16;86.12;102240.41;5046265;28;20491;-49
2022/01/19 07:52:29;;;;;;;43.87;22.80;;;;;;;3.18;85.54;102228.78;5029817;28;20817;-47
2022/01/19 07:54:57;;;;;;;51.30;22.93;;;;;;;3.19;85.05;102224.34;5030193;28;20444;-48
2022/01/19 07:57:26;;;;;;;44.37;21.97;;;;;;;3.16;85.27;102221.94;5030197;28;20456;-51
2022/01/19 07:59:53;;;;;;;44.93;23.33;;;;;;;3.21;84.62;102211.88;5029599;28;20444;-49
2022/01/19 08:02:21;;;;;;;36.43;21.30;;;;;;;3.15;86.06;102214.97;5029786;28;20432;-47
2022/01/19 08:04:49;;;;;;;49.17;20.77;;;;;;;3.13;85.97;102204.56;5030135;28;20432;-46
2022/01/19 08:07:16;;;;;;;30.10;17.63;;;;;;;3.07;87.00;102212.06;5030180;28;20958;-45
2022/01/19 08:09:44;;;;;;;36.70;21.77;;;;;;;3.02;87.15;102204.50;5029934;28;20844;-47
2022/01/19 08:12:12;;;;;;;33.90;19.10;;;;;;;3.07;86.49;102205.00;5010623;28;21166;-52
2022/01/19 08:14:41;;;;;;;42.50;21.40;;;;;;;3.09;86.58;102202.25;5010032;28;20977;-47
2022/01/19 08:17:08;;;;;;;36.10;20.30;;;;;;;3.07;86.99;102196.25;5010437;28;20827;-49
2022/01/19 08:19:36;;;;;;;44.40;23.33;;;;;;;3.06;87.00;102192.78;5010300;28;21113;-45
2022/01/19 08:22:05;;;;;;;35.10;20.70;;;;;;;3.11;86.88;102185.38;5010413;28;20444;-48
2022/01/19 08:24:32;;;;;;;42.60;23.30;;;;;;;3.14;86.31;102181.66;5029116;28;20456;-48
2022/01/19 08:27:06;;;;;;;45.30;23.00;;;;;;;3.14;86.70;102176.38;5030008;28;20452;-49
2022/01/19 08:29:34;;;;;;;45.83;23.37;;;;;;;3.13;86.52;102167.66;5029757;28;20450;-49
2022/01/19 08:32:03;;;;;;;56.53;23.33;;;;;;;3.18;86.61;102162.03;5028888;28;20432;-50
2022/01/19 08:34:51;;;;;;;47.27;24.10;;;;;;;3.15;86.16;102157.84;5029357;28;20443;-48
2022/01/19 08:37:18;;;;;;;41.77;25.60;;;;;;;3.16;85.32;102142.88;5029786;28;20535;-47
2022/01/19 08:39:46;;;;;;;54.97;27.50;;;;;;;3.22;84.55;102142.41;5029592;28;20428;-47
2022/01/19 08:42:14;;;;;;;55.60;27.60;;;;;;;3.23;84.31;102139.63;5010556;28;20444;-46
2022/01/19 08:44:42;;;;;;;50.60;26.17;;;;;;;3.28;84.08;102139.31;5019833;28;20520;-47
2022/01/19 08:47:11;;;;;;;58.30;27.53;;;;;;;3.31;84.42;102131.16;5027961;28;20458;-47
2022/01/19 08:49:52;;;;;;;60.27;27.40;;;;;;;3.29;83.48;102144.44;5029343;28;20532;-51
2022/01/19 08:52:20;;;;;;;58.87;29.00;;;;;;;3.31;82.49;102136.44;5012776;28;20970;-44
2022/01/19 08:54:48;;;;;;;68.97;31.57;;;;;;;3.30;82.20;102132.97;5009748;28;20440;-48
2022/01/19 08:57:16;;;;;;;61.17;29.97;;;;;;;3.37;81.28;102129.88;5009967;28;20461;-48
2022/01/19 08:59:44;;;;;;;59.00;31.37;;;;;;;3.36;80.67;102118.47;5009743;28;20433;-50
2022/01/19 09:02:13;;;;;;;53.50;28.70;;;;;;;3.40;79.84;102113.81;5008787;28;20445;-47
2022/01/19 09:04:40;;;;;;;67.30;30.67;;;;;;;3.40;80.13;102106.75;5016423;28;20505;-48
2022/01/19 09:07:08;;;;;;;56.40;30.37;;;;;;;3.45;79.75;102101.09;5029002;28;20478;-46
2022/01/19 09:09:36;;;;;;;66.63;28.33;;;;;;;3.50;80.74;102083.97;5029459;28;20432;-47
2022/01/19 09:12:04;;;;;;;64.73;31.27;;;;;;;3.53;81.50;102091.63;5028828;28;20487;-48
2022/01/19 09:14:32;;;;;;;54.20;30.23;;;;;;;3.55;81.94;102092.38;5028178;28;20432;-49
2022/01/19 09:17:01;;;;;;;56.37;30.43;;;;;;;3.55;82.01;102081.84;5029601;28;20464;-47
2022/01/19 09:19:30;;;;;;;61.37;30.73;;;;;;;3.57;82.09;102072.00;5029809;28;20428;-47
2022/01/19 09:21:58;;;;;;;57.13;31.53;;;;;;;3.61;82.42;102075.25;5048186;28;20479;-48
2022/01/19 09:24:25;;;;;;;66.13;31.97;;;;;;;3.63;82.20;102081.22;5048831;28;20462;-48
2022/01/19 09:26:57;;;;;;;54.00;29.90;;;;;;;3.67;82.54;102062.41;5049074;28;20972;-50
2022/01/19 09:29:24;;;;;;;61.87;30.80;;;;;;;3.67;82.38;102067.69;5049367;28;20797;-46
2022/01/19 09:31:54;;;;;;;55.67;31.57;;;;;;;3.61;80.49;102062.91;5048027;28;20482;-48
2022/01/19 09:34:22;;;;;;;70.13;34.70;;;;;;;3.68;79.71;102060.59;5029390;28;20432;-46
2022/01/19 09:36:51;;;;;;;63.60;32.40;;;;;;;3.68;79.82;102057.94;5033367;28;20810;-50
2022/01/19 09:39:21;;;;;;;71.53;34.03;;;;;;;3.73;79.63;102055.81;5033168;28;20472;-47
2022/01/19 09:41:49;;;;;;;62.37;33.30;;;;;;;3.74;80.48;102047.75;5032402;28;20460;-48
2022/01/19 09:44:18;;;;;;;63.77;31.87;;;;;;;3.77;80.55;102046.69;5040692;28;20435;-49
2022/01/19 09:46:46;;;;;;;63.93;35.50;;;;;;;3.79;81.33;102034.22;5047979;28;20455;-47
2022/01/19 09:49:17;;;;;;;61.17;31.33;;;;;;;3.77;81.39;102025.56;5052972;28;20450;-47
2022/01/19 09:51:46;;;;;;;71.20;35.13;;;;;;;3.81;81.40;102021.75;5037059;28;21009;-46
2022/01/19 09:54:23;;;;;;;60.23;33.57;;;;;;;3.82;82.18;102008.41;5035112;28;20434;-50
2022/01/19 09:56:53;;;;;;;65.43;33.40;;;;;;;3.87;82.53;102008.91;5045739;28;20494;-47
2022/01/19 09:59:22;;;;;;;55.20;28.40;;;;;;;3.93;83.75;102002.28;5053220;28;20433;-47
2022/01/19 10:01:52;;;;;;;60.83;32.90;;;;;;;3.97;84.18;101985.25;5051530;28;20542;-47
2022/01/19 10:04:22;;;;;;;66.93;33.33;;;;;;;3.97;85.95;101973.84;5044280;28;20483;-44
2022/01/19 10:06:50;;;;;;;53.20;31.60;;;;;;;4.03;86.27;101970.72;5032601;28;20882;-48
2022/01/19 10:09:29;;;;;;;69.97;33.57;;;;;;;4.08;87.53;101961.47;5032662;28;20436;-48
2022/01/19 10:17:41;;;;;;;60.00;31.77;;;;;;;4.26;90.00;101936.19;5052550;28;20452;-49
2022/01/19 10:20:21;;;;;;;56.37;32.97;;;;;;;4.36;90.92;101937.09;5052003;28;20462;-45
2022/01/19 10:22:54;;;;;;;53.70;33.10;;;;;;;4.46;91.99;101947.72;5051141;28;20857;-47
2022/01/19 10:25:23;;;;;;;54.07;31.50;;;;;;;4.52;93.51;101923.44;5051164;28;20432;-47
2022/01/19 10:27:50;;;;;;;59.57;33.77;;;;;;;4.56;94.47;101924.88;5051266;28;20452;-47
2022/01/19 10:30:25;;;;;;;51.87;32.47;;;;;;;4.60;95.97;101921.00;5051616;28;20459;-45
2022/01/19 10:32:56;;;;;;;59.20;33.23;;;;;;;4.64;96.11;101906.56;5051650;28;20485;-49
2022/01/19 10:35:27;;;;;;;53.50;31.50;;;;;;;4.68;96.21;101910.63;5035511;28;20440;-49
2022/01/19 10:38:11;;;;;;;54.90;34.23;;;;;;;4.73;96.78;101897.84;5031622;28;20448;-45
2022/01/19 10:40:42;;;;;;;49.10;31.80;;;;;;;4.72;96.98;101879.50;5031430;28;20826;-51
2022/01/19 10:43:32;;;;;;;52.13;32.10;;;;;;;4.78;97.04;101866.59;5033742;28;20435;-49
2022/01/19 10:46:21;;;;;;;50.07;29.67;;;;;;;4.82;96.88;101853.94;5042649;28;20460;-49
2022/01/19 10:48:49;;;;;;;47.27;28.53;;;;;;;4.91;97.00;101843.44;5032207;28;20448;-49
2022/01/19 10:51:19;;;;;;;43.43;29.20;;;;;;;5.00;96.65;101829.41;5030895;28;20468;-47
2022/01/19 10:54:06;;;;;;;50.17;29.43;;;;;;;5.09;96.20;101817.19;5032096;28;20428;-49
2022/01/19 10:56:35;;;;;;;49.70;28.80;;;;;;;5.24;96.33;101809.69;5032125;28;20969;-49
2022/01/19 10:59:06;;;;;;;44.10;28.23;;;;;;;5.31;95.58;101821.41;5032913;28;20442;-47
2022/01/19 11:01:35;;;;;;;43.27;27.70;;;;;;;5.34;95.66;101818.50;5031659;28;20460;-52
2022/01/19 11:04:28;;;;;;;48.97;28.80;;;;;;;5.34;95.55;101818.50;5029471;28;20439;-46
2022/01/19 11:06:59;;;;;;;46.47;28.90;;;;;;;5.37;94.95;101799.72;5030985;28;21001;-47
2022/01/19 11:09:29;;;;;;;57.43;30.87;;;;;;;5.28;95.26;101795.25;5031727;28;20425;-49
2022/01/19 11:12:02;;;;;;;43.80;29.63;;;;;;;5.25;95.03;101783.13;5030192;28;20506;-49
2022/01/19 11:14:30;;;;;;;47.43;30.90;;;;;;;5.21;95.93;101772.94;5030919;28;20429;-48
2022/01/19 11:16:58;;;;;;;53.97;32.10;;;;;;;5.24;95.93;101775.31;5030737;28;20456;-48
2022/01/19 11:19:26;;;;;;;58.10;32.83;;;;;;;5.24;95.78;101760.31;5030548;28;20800;-47
2022/01/19 11:22:34;;;;;;;53.77;32.60;;;;;;;5.25;95.50;101761.13;5029972;28;20464;-49
2022/01/19 11:25:10;;;;;;;45.40;30.87;;;;;;;5.21;96.26;101752.63;5030829;28;20436;-45
2022/01/19 11:27:57;;;;;;;55.10;33.60;;;;;;;5.24;96.31;101743.59;5030318;28;20460;-52
2022/01/19 11:30:29;;;;;;;50.03;31.73;;;;;;;5.29;95.92;101739.56;5033706;28;20463;-50
2022/01/19 11:33:16;;;;;;;53.83;32.60;;;;;;;5.33;96.18;101732.19;5050003;28;20475;-50
2022/01/19 11:35:46;;;;;;;53.37;31.40;;;;;;;5.41;95.77;101719.09;5050506;28;20944;-45
2022/01/19 11:38:31;;;;;;;57.57;33.97;;;;;;;5.44;95.39;101708.22;5049727;28;20452;-46
2022/01/19 11:40:59;;;;;;;55.23;31.50;;;;;;;5.42;95.29;101704.91;5041219;28;20470;-47
2022/01/19 11:43:30;;;;;;;54.50;34.87;;;;;;;5.41;95.18;101693.47;5036299;28;20432;-50
2022/01/19 11:45:59;;;;;;;54.30;35.47;;;;;;;5.41;94.63;101690.84;5041859;28;20526;-45
2022/01/19 11:48:28;;;;;;;53.37;34.00;;;;;;;5.32;94.92;101693.47;5049504;28;20467;-46
2022/01/19 11:51:25;;;;;;;54.30;33.70;;;;;;;5.26;94.91;101689.59;5049090;28;20463;-48
2022/01/19 11:54:04;;;;;;;58.00;33.10;;;;;;;5.24;95.16;101685.41;5049888;28;20432;-48
2022/01/19 11:56:33;;;;;;;62.03;34.60;;;;;;;5.21;95.55;101669.81;5050523;28;20483;-50
2022/01/19 11:59:06;;;;;;;59.27;34.50;;;;;;;5.16;96.13;101664.13;5050477;28;20435;-46
2022/01/19 12:01:35;;;;;;;61.17;34.63;;;;;;;5.08;96.06;101670.09;5036305;28;20465;-51
2022/01/19 12:04:16;;;;;;;54.40;34.00;;;;;;;5.12;96.08;101662.72;5030355;28;20432;-45
2022/01/19 12:06:45;;;;;;;64.77;35.80;;;;;;;5.06;95.87;101653.53;5029897;28;20459;-45
2022/01/19 12:09:15;;;;;;;60.43;34.40;;;;;;;5.04;95.88;101642.28;5030970;28;20830;-48
2022/01/19 12:11:50;;;;;;;62.10;35.77;;;;;;;5.04;96.08;101647.56;5029169;28;20484;-47
2022/01/19 12:14:23;;;;;;;57.93;33.67;;;;;;;5.02;95.84;101631.00;5030125;28;20885;-47
2022/01/19 12:17:02;;;;;;;56.83;35.40;;;;;;;5.01;95.88;101622.25;5029783;28;20461;-50
2022/01/19 12:19:38;;;;;;;66.93;37.90;;;;;;;5.04;96.22;101610.56;5030530;28;20523;-44
2022/01/19 12:22:12;;;;;;;56.73;36.00;;;;;;;5.02;95.77;101596.63;5046779;28;20488;-51
2022/01/19 12:24:44;;;;;;;67.23;39.23;;;;;;;5.09;96.08;101602.19;5050358;28;20436;-45
2022/01/19 12:27:27;;;;;;;62.97;39.60;;;;;;;5.03;95.87;101577.16;5039439;28;20452;-45
2022/01/19 12:30:10;;;;;;;72.53;40.43;;;;;;;4.95;96.50;101584.97;5029932;28;20455;-50
2022/01/19 12:32:46;;;;;;;69.87;43.67;;;;;;;4.85;96.45;101576.19;5029438;28;20472;-45
2022/01/19 12:35:20;;;;;;;66.77;41.43;;;;;;;4.86;96.62;101562.84;5030073;28;21006;-44
2022/01/19 12:37:50;;;;;;;68.30;42.90;;;;;;;4.84;96.20;101562.13;5029743;28;20535;-48
2022/01/19 12:40:47;;;;;;;69.63;41.60;;;;;;;4.84;96.44;101553.38;5028977;28;20834;-49